Time;durP1;ratioP1;P1;durP2;ratioP2;P2;SDS_P1;SDS_P2;PMS_P1;PMS_P2;Temp;Humidity;BMP_temperature;BMP_pressure;BME280_temperature;BME280_humidity;BME280_pressure;Samples;Min_cycle;Max_cycle;Signal;HPM_P1;HPM_P2
2023/12/11 00:02:08;;;;;;;0.80;0.80;;;;;;;3.03;100.00;100451.78;5109995;28;20250;-72
2023/12/11 00:04:35;;;;;;;1.47;1.47;;;;;;;2.48;100.00;100439.56;5110067;28;20592;-71
2023/12/11 00:07:02;;;;;;;0.73;0.73;;;;;;;2.72;100.00;100451.88;5110065;28;20200;-72
2023/12/11 00:09:28;;;;;;;0.80;0.80;;;;;;;2.30;100.00;100378.88;5056747;28;20202;-72
2023/12/11 00:11:57;;;;;;;1.00;1.00;;;;;;;2.70;100.00;100441.56;5097924;28;20193;-72
2023/12/11 00:14:24;;;;;;;1.10;1.10;;;;;;;2.58;100.00;100437.47;5058145;28;20214;-72
2023/12/11 00:16:51;;;;;;;4.97;2.27;;;;;;;2.62;100.00;100436.84;5110057;28;20208;-72
2023/12/11 00:19:18;;;;;;;0.93;0.93;;;;;;;2.58;100.00;100432.34;5110427;28;20197;-72
2023/12/11 00:21:45;;;;;;;0.60;0.60;;;;;;;2.45;100.00;100431.75;5109700;28;20212;-72
2023/12/11 00:24:12;;;;;;;1.33;1.33;;;;;;;2.62;100.00;100426.59;5110216;28;20696;-72
2023/12/11 00:26:39;;;;;;;1.50;1.47;;;;;;;2.43;100.00;100405.16;5110094;28;20209;-72
2023/12/11 00:29:07;;;;;;;1.37;1.37;;;;;;;2.59;100.00;100431.56;5109722;28;20211;-72
2023/12/11 00:31:34;;;;;;;0.93;0.93;;;;;;;2.34;100.00;100406.38;5113457;28;20602;-72
2023/12/11 00:34:01;;;;;;;3.17;2.20;;;;;;;2.43;100.00;100422.19;5113806;28;20203;-72
2023/12/11 00:36:28;;;;;;;1.00;1.00;;;;;;;2.50;100.00;100422.59;5113628;28;20217;-72
2023/12/11 00:38:55;;;;;;;3.23;1.77;;;;;;;2.43;100.00;100417.97;5113185;28;20201;-72
2023/12/11 00:41:22;;;;;;;0.90;0.90;;;;;;;2.45;100.00;100424.06;5113565;28;20225;-72
2023/12/11 00:43:49;;;;;;;1.00;1.00;;;;;;;2.53;100.00;100421.91;5113536;28;20193;-72
2023/12/11 00:46:21;;;;;;;1.13;1.13;;;;;;;2.55;100.00;100424.53;5113727;28;20681;-72
2023/12/11 00:48:48;;;;;;;1.07;1.07;;;;;;;2.34;100.00;100408.94;5060641;28;20206;-72
2023/12/11 00:51:17;;;;;;;1.10;1.10;;;;;;;2.25;100.00;100393.97;5113638;28;20201;-72
2023/12/11 00:53:44;;;;;;;0.80;0.80;;;;;;;2.32;100.00;100408.84;5113454;28;20193;-72
2023/12/11 00:56:11;;;;;;;0.80;0.80;;;;;;;2.18;100.00;100431.94;5113071;28;20198;-72
2023/12/11 00:58:37;;;;;;;0.80;0.80;;;;;;;2.20;100.00;100397.97;5112960;28;20193;-72
2023/12/11 01:01:04;;;;;;;1.03;1.03;;;;;;;2.32;100.00;100416.53;5060608;28;20536;-71
2023/12/11 01:03:33;;;;;;;1.67;1.60;;;;;;;2.36;100.00;100422.69;5112989;28;20618;-72
2023/12/11 01:06:00;;;;;;;1.03;1.03;;;;;;;2.17;100.00;100402.94;5113505;28;20196;-72
2023/12/11 01:08:27;;;;;;;6.13;2.97;;;;;;;2.27;100.00;100412.84;5113116;28;20194;-72
2023/12/11 01:10:54;;;;;;;1.20;1.20;;;;;;;2.32;100.00;100419.06;5113287;28;20201;-72
2023/12/11 01:13:22;;;;;;;6.63;5.03;;;;;;;2.12;100.00;100395.81;5112434;28;20649;-72
2023/12/11 01:15:49;;;;;;;1.00;1.00;;;;;;;2.23;100.00;100393.03;5112920;28;20258;-72
2023/12/11 01:18:15;;;;;;;1.00;1.00;;;;;;;2.22;100.00;100373.34;5113103;28;20197;-73
2023/12/11 01:20:44;;;;;;;0.73;0.73;;;;;;;2.38;100.00;100381.03;5112989;28;20193;-72
2023/12/11 01:23:11;;;;;;;1.00;1.00;;;;;;;2.34;100.00;100398.69;5112760;28;20693;-72
2023/12/11 01:25:38;;;;;;;1.10;1.10;;;;;;;2.22;100.00;100380.16;5112468;28;20202;-72
2023/12/11 01:28:05;;;;;;;1.00;1.00;;;;;;;2.39;100.00;100394.72;5111980;28;20201;-73
2023/12/11 01:30:31;;;;;;;0.73;0.73;;;;;;;2.38;100.00;100387.84;5111888;28;20726;-72
2023/12/11 01:32:58;;;;;;;0.90;0.90;;;;;;;2.08;100.00;100374.31;5111929;28;20711;-73
2023/12/11 01:35:25;;;;;;;0.90;0.90;;;;;;;2.30;100.00;100361.84;5112113;28;20207;-73
2023/12/11 01:37:53;;;;;;;1.87;1.70;;;;;;;2.36;100.00;100381.75;5111845;28;20197;-72
2023/12/11 01:40:20;;;;;;;1.07;1.07;;;;;;;2.21;100.00;100366.47;5111480;28;20205;-73
2023/12/11 01:42:47;;;;;;;1.00;1.00;;;;;;;2.39;100.00;100382.78;5111740;28;20217;-73
2023/12/11 01:45:14;;;;;;;0.90;0.90;;;;;;;1.00;100.00;100114.72;5112272;28;20201;-73
2023/12/11 01:47:41;;;;;;;2.77;2.20;;;;;;;2.49;100.00;100374.81;5111777;28;20225;-73
2023/12/11 01:50:09;;;;;;;0.90;0.90;;;;;;;2.49;100.00;100369.69;5111621;28;20786;-73
2023/12/11 01:52:36;;;;;;;0.83;0.83;;;;;;;2.41;100.00;100368.41;5111993;28;20205;-72
2023/12/11 01:55:06;;;;;;;0.90;0.90;;;;;;;2.33;100.00;100364.56;5112642;28;20684;-73
2023/12/11 01:57:33;;;;;;;1.17;1.17;;;;;;;2.26;100.00;100354.81;5112157;28;20191;-72
2023/12/11 02:00:04;;;;;;;1.00;1.00;;;;;;;2.18;100.00;100339.84;5111611;28;20201;-73
2023/12/11 02:02:32;;;;;;;1.10;1.10;;;;;;;2.27;100.00;100369.38;5111422;28;20214;-73
2023/12/11 02:04:59;;;;;;;0.60;0.60;;;;;;;2.23;100.00;100380.22;5111998;28;20211;-72
2023/12/11 02:07:26;;;;;;;0.93;0.93;;;;;;;2.37;100.00;100386.94;5111981;28;20216;-73
2023/12/11 02:09:53;;;;;;;0.80;0.80;;;;;;;2.39;100.00;100377.66;5111920;28;20190;-73
2023/12/11 02:12:21;;;;;;;0.90;0.90;;;;;;;2.35;100.00;100360.44;5111396;28;20190;-73
2023/12/11 02:14:48;;;;;;;16.63;1.27;;;;;;;2.22;100.00;100350.34;5111728;28;20200;-72
2023/12/11 02:17:15;;;;;;;1.77;1.67;;;;;;;2.26;100.00;100326.69;5111599;28;20201;-72
2023/12/11 02:19:41;;;;;;;1.83;1.73;;;;;;;2.38;100.00;100363.13;5111576;28;20193;-72
2023/12/11 02:22:11;;;;;;;0.63;0.63;;;;;;;2.43;100.00;100350.56;5111331;28;20222;-73
2023/12/11 02:24:43;;;;;;;1.30;1.30;;;;;;;2.38;100.00;100352.03;5111725;28;20193;-72
2023/12/11 02:27:11;;;;;;;1.83;1.83;;;;;;;1.81;100.00;100245.03;5111595;28;20205;-72
2023/12/11 02:29:39;;;;;;;1.50;1.50;;;;;;;2.51;100.00;100344.16;5111050;28;20257;-73
2023/12/11 02:32:06;;;;;;;1.40;1.40;;;;;;;2.51;100.00;100349.28;5111099;28;20288;-73
2023/12/11 02:34:33;;;;;;;1.10;1.10;;;;;;;2.55;100.00;100343.50;5111028;28;20208;-73
2023/12/11 02:37:00;;;;;;;1.00;1.00;;;;;;;2.41;100.00;100309.56;5111293;28;20197;-73
2023/12/11 02:39:27;;;;;;;1.00;1.00;;;;;;;2.66;100.00;100344.06;5111578;28;20189;-73
2023/12/11 02:41:54;;;;;;;0.90;0.90;;;;;;;2.73;100.00;100338.44;5111051;28;20217;-73
2023/12/11 02:44:22;;;;;;;2.20;1.73;;;;;;;2.82;100.00;100331.19;5111161;28;20205;-72
2023/12/11 02:46:49;;;;;;;2.13;2.03;;;;;;;2.74;100.00;100345.31;5111302;28;20190;-73
2023/12/11 02:49:16;;;;;;;1.10;1.10;;;;;;;2.73;100.00;100335.88;5075650;28;20272;-72
2023/12/11 02:51:43;;;;;;;1.07;1.07;;;;;;;2.73;100.00;100349.56;5110899;28;20197;-73
2023/12/11 02:54:09;;;;;;;1.10;1.10;;;;;;;2.76;100.00;100356.50;5077275;28;20197;-73
2023/12/11 02:56:39;;;;;;;1.97;1.87;;;;;;;2.77;100.00;100325.00;5111202;28;20193;-73
2023/12/11 02:59:05;;;;;;;0.80;0.80;;;;;;;2.94;100.00;100350.63;5092003;28;20217;-73
2023/12/11 03:01:38;;;;;;;0.77;0.77;;;;;;;2.87;100.00;100363.94;5110743;28;20197;-72
2023/12/11 03:04:05;;;;;;;1.20;1.20;;;;;;;2.85;100.00;100354.44;5074870;27;20193;-72
2023/12/11 03:06:31;;;;;;;1.43;1.40;;;;;;;3.07;100.00;100353.81;5110644;28;20205;-73
2023/12/11 03:09:01;;;;;;;0.60;0.60;;;;;;;3.11;100.00;100354.00;5111229;28;20190;-73
2023/12/11 03:11:28;;;;;;;0.60;0.60;;;;;;;3.19;100.00;100337.31;5111034;28;20193;-73
2023/12/11 03:13:55;;;;;;;0.90;0.90;;;;;;;3.28;100.00;100350.56;5110663;28;20212;-72
2023/12/11 03:16:22;;;;;;;0.80;0.80;;;;;;;3.39;100.00;100351.06;5110822;28;20193;-73
2023/12/11 03:18:50;;;;;;;0.90;0.90;;;;;;;3.54;100.00;100345.78;5110203;28;20641;-73
2023/12/11 03:21:17;;;;;;;1.43;1.43;;;;;;;3.48;100.00;100341.28;5110669;28;20197;-73
2023/12/11 03:23:45;;;;;;;0.90;0.90;;;;;;;3.41;100.00;100344.34;5110320;28;20213;-73
2023/12/11 03:26:12;;;;;;;0.80;0.80;;;;;;;3.62;100.00;100329.09;5110801;28;20200;-73
2023/12/11 03:28:38;;;;;;;0.70;0.70;;;;;;;3.39;100.00;100316.06;5110280;28;20194;-73
2023/12/11 03:31:05;;;;;;;1.57;1.57;;;;;;;3.31;100.00;100307.19;5111198;28;20221;-73
2023/12/11 03:33:32;;;;;;;0.90;0.90;;;;;;;3.29;100.00;100292.50;5074286;28;20201;-73
2023/12/11 03:36:00;;;;;;;1.10;1.10;;;;;;;3.20;100.00;100300.66;5110081;28;20654;-73
2023/12/11 03:38:27;;;;;;;0.90;0.90;;;;;;;3.27;100.00;100302.72;5110279;28;20196;-72
2023/12/11 03:40:54;;;;;;;0.70;0.70;;;;;;;3.00;100.00;100304.81;5110665;28;20208;-73
2023/12/11 03:43:21;;;;;;;0.80;0.80;;;;;;;3.27;100.00;100299.28;5109969;28;20217;-73
2023/12/11 03:45:48;;;;;;;1.07;1.07;;;;;;;3.37;100.00;100307.47;5091368;28;20190;-73
2023/12/11 03:48:15;;;;;;;1.43;1.43;;;;;;;3.39;100.00;100313.50;5110623;28;20254;-73
2023/12/11 03:50:42;;;;;;;1.33;1.33;;;;;;;3.54;100.00;100315.03;5074800;28;20199;-73
2023/12/11 03:53:10;;;;;;;1.00;1.00;;;;;;;3.42;100.00;100320.50;5109331;28;20212;-73
2023/12/11 03:55:37;;;;;;;1.80;1.70;;;;;;;3.67;100.00;100317.38;5073580;28;20197;-73
2023/12/11 03:58:04;;;;;;;1.93;1.80;;;;;;;3.73;100.00;100335.59;5109824;28;20197;-73
2023/12/11 04:00:31;;;;;;;3.73;3.43;;;;;;;3.54;100.00;100335.53;5110543;28;20197;-73
2023/12/11 04:02:58;;;;;;;1.83;1.73;;;;;;;3.69;100.00;100338.81;5109755;28;20223;-73
2023/12/11 04:05:25;;;;;;;0.60;0.60;;;;;;;3.54;100.00;100330.41;5114167;28;20201;-73
2023/12/11 04:07:51;;;;;;;0.83;0.83;;;;;;;3.62;100.00;100334.22;5113977;28;20578;-73
2023/12/11 04:10:20;;;;;;;1.00;1.00;;;;;;;3.85;100.00;100328.47;5077809;28;20213;-73
2023/12/11 04:12:46;;;;;;;2.40;2.20;;;;;;;3.71;100.00;100337.22;5114322;28;20215;-73
2023/12/11 04:15:13;;;;;;;1.47;1.47;;;;;;;3.76;100.00;100325.47;5114265;28;20190;-73
2023/12/11 04:17:42;;;;;;;1.10;1.10;;;;;;;3.69;100.00;100331.13;5114022;28;20201;-72
2023/12/11 04:20:09;;;;;;;1.10;1.10;;;;;;;3.58;100.00;100302.44;5114294;28;20208;-72
2023/12/11 04:22:36;;;;;;;0.80;0.80;;;;;;;3.55;100.00;100327.94;5077696;28;20209;-72
2023/12/11 04:25:03;;;;;;;0.80;0.80;;;;;;;3.69;100.00;100333.69;5095511;28;20228;-73
2023/12/11 04:27:32;;;;;;;0.90;0.90;;;;;;;3.63;100.00;100331.75;5077654;28;20602;-72
2023/12/11 04:29:58;;;;;;;1.27;1.27;;;;;;;3.66;100.00;100305.34;5114056;28;20252;-73
2023/12/11 04:32:25;;;;;;;0.90;0.90;;;;;;;3.85;100.00;100328.47;5077389;28;20193;-72
2023/12/11 04:34:52;;;;;;;1.20;1.20;;;;;;;3.88;100.00;100328.63;5113514;28;20205;-73
2023/12/11 04:37:19;;;;;;;0.80;0.80;;;;;;;3.97;100.00;100329.00;5112900;28;20198;-72
2023/12/11 04:39:46;;;;;;;0.80;0.80;;;;;;;3.66;100.00;100310.50;5113587;28;20194;-73
2023/12/11 04:42:13;;;;;;;1.00;1.00;;;;;;;3.95;100.00;100325.50;5113394;28;20227;-73
2023/12/11 04:44:41;;;;;;;0.70;0.70;;;;;;;4.11;100.00;100327.06;5113149;28;20193;-72
2023/12/11 04:47:08;;;;;;;1.20;1.20;;;;;;;3.77;100.00;100304.16;5113216;28;20196;-73
2023/12/11 04:49:34;;;;;;;0.90;0.90;;;;;;;3.91;100.00;100333.88;5082811;28;20194;-72
2023/12/11 04:52:01;;;;;;;1.00;1.00;;;;;;;3.96;100.00;100328.13;5112143;28;20206;-72
2023/12/11 04:54:28;;;;;;;0.70;0.70;;;;;;;3.88;100.00;100314.09;5113001;28;20208;-73
2023/12/11 04:56:55;;;;;;;1.23;1.20;;;;;;;3.96;100.00;100327.25;5112819;28;20754;-73
2023/12/11 04:59:22;;;;;;;1.00;1.00;;;;;;;3.96;100.00;100322.13;5112792;28;20201;-73
2023/12/11 05:01:50;;;;;;;1.00;1.00;;;;;;;4.12;100.00;100314.31;5112961;28;20316;-73
2023/12/11 05:04:17;;;;;;;1.03;1.03;;;;;;;4.16;100.00;100323.91;5113071;28;20572;-73
2023/12/11 05:06:44;;;;;;;1.23;1.20;;;;;;;4.16;100.00;100311.06;5112936;28;20238;-73
2023/12/11 05:09:11;;;;;;;2.93;1.37;;;;;;;4.00;100.00;100312.06;5086912;27;20668;-73
2023/12/11 05:11:38;;;;;;;1.17;1.17;;;;;;;3.57;100.00;100326.31;5133922;27;20540;-72
2023/12/11 05:14:05;;;;;;;0.93;0.93;;;;;;;3.65;100.00;100294.22;5119215;27;20206;-72
2023/12/11 05:16:32;;;;;;;0.97;0.97;;;;;;;3.43;100.00;100287.22;5112249;28;20232;-71
2023/12/11 05:19:00;;;;;;;1.30;1.30;;;;;;;3.84;100.00;100321.59;5113308;28;20215;-72
2023/12/11 05:21:27;;;;;;;0.77;0.77;;;;;;;3.60;100.00;100320.47;5113574;28;20200;-72
2023/12/11 05:23:54;;;;;;;0.70;0.70;;;;;;;3.54;100.00;100297.97;5113091;28;20214;-71
2023/12/11 05:26:21;;;;;;;1.00;1.00;;;;;;;3.70;100.00;100328.66;5113112;28;20597;-72
2023/12/11 05:28:48;;;;;;;0.77;0.77;;;;;;;3.46;100.00;100299.34;5113002;27;20661;-73
2023/12/11 05:31:15;;;;;;;0.90;0.90;;;;;;;3.00;100.00;100214.31;5121473;27;20301;-72
2023/12/11 05:33:42;;;;;;;1.23;1.23;;;;;;;3.65;100.00;100317.28;5127706;27;20657;-72
2023/12/11 05:36:11;;;;;;;1.00;1.00;;;;;;;3.45;100.00;100271.94;5118507;27;20208;-72
2023/12/11 05:38:38;;;;;;;1.03;1.03;;;;;;;3.94;100.00;100341.69;5114662;27;20562;-72
2023/12/11 05:41:05;;;;;;;0.80;0.80;;;;;;;3.83;100.00;100345.47;5112631;28;20198;-72
2023/12/11 05:43:32;;;;;;;0.90;0.90;;;;;;;3.71;100.00;100344.91;5112276;28;20587;-72
2023/12/11 05:45:59;;;;;;;0.90;0.90;;;;;;;3.74;100.00;100329.66;5111766;28;20212;-72
2023/12/11 05:48:26;;;;;;;1.00;1.00;;;;;;;3.94;100.00;100344.28;5112073;28;20193;-73
2023/12/11 05:50:53;;;;;;;0.60;0.60;;;;;;;4.03;100.00;100334.44;5076586;28;20207;-72
2023/12/11 05:53:21;;;;;;;0.80;0.80;;;;;;;4.12;100.00;100309.19;5112546;28;20239;-74
2023/12/11 05:55:48;;;;;;;1.00;1.00;;;;;;;3.91;100.00;100329.63;5112436;28;20292;-76
2023/12/11 05:58:14;;;;;;;0.90;0.90;;;;;;;4.11;100.00;100325.38;5112363;28;20203;-76
2023/12/11 06:00:41;;;;;;;2.53;2.37;;;;;;;4.18;100.00;100324.84;5112210;28;20209;-75
2023/12/11 06:03:08;;;;;;;1.40;1.40;;;;;;;4.25;100.00;100337.13;5109705;28;20236;-73
2023/12/11 06:05:35;;;;;;;1.03;1.03;;;;;;;4.28;100.00;100351.81;5111401;28;20217;-75
2023/12/11 06:08:02;;;;;;;0.90;0.90;;;;;;;4.08;100.00;100343.19;5107603;28;20216;-76
2023/12/11 06:10:30;;;;;;;1.87;1.87;;;;;;;4.31;100.00;100347.69;5107936;28;20202;-74
2023/12/11 06:12:57;;;;;;;0.80;0.80;;;;;;;4.24;100.00;100337.97;5107634;28;20194;-75
2023/12/11 06:15:24;;;;;;;0.90;0.90;;;;;;;3.95;100.00;100297.31;5109493;28;20227;-73
2023/12/11 06:17:51;;;;;;;1.10;1.10;;;;;;;3.98;100.00;100338.47;5111348;28;20586;-71
2023/12/11 06:20:18;;;;;;;0.80;0.80;;;;;;;4.21;100.00;100337.78;5110883;28;20204;-73
2023/12/11 06:22:47;;;;;;;0.90;0.90;;;;;;;4.17;100.00;100343.63;5097447;28;20206;-72
2023/12/11 06:25:14;;;;;;;0.90;0.90;;;;;;;4.25;100.00;100332.00;5107183;28;20205;-70
2023/12/11 06:27:42;;;;;;;0.90;0.90;;;;;;;4.36;100.00;100338.47;5058759;28;20205;-71
2023/12/11 06:30:10;;;;;;;1.77;1.77;;;;;;;4.30;100.00;100320.25;5110833;28;20225;-71
2023/12/11 06:32:36;;;;;;;0.83;0.83;;;;;;;4.49;100.00;100342.47;5111016;28;20205;-72
2023/12/11 06:35:04;;;;;;;0.80;0.80;;;;;;;4.58;100.00;100321.41;5110873;28;20197;-72
2023/12/11 06:37:31;;;;;;;0.90;0.90;;;;;;;4.80;100.00;100350.66;5110799;28;20200;-73
2023/12/11 06:39:57;;;;;;;1.57;1.57;;;;;;;4.80;100.00;100345.50;5105916;27;20212;-72
2023/12/11 06:42:24;;;;;;;0.87;0.87;;;;;;;4.97;100.00;100348.78;5106573;27;20205;-72
2023/12/11 06:44:53;;;;;;;0.73;0.73;;;;;;;5.25;100.00;100348.19;5118599;27;20549;-71
2023/12/11 06:47:20;;;;;;;1.00;1.00;;;;;;;5.26;100.00;100348.28;5105551;28;20284;-69
2023/12/11 06:49:47;;;;;;;1.00;1.00;;;;;;;5.29;100.00;100355.22;5058822;28;20213;-70
2023/12/11 06:52:15;;;;;;;0.80;0.80;;;;;;;5.38;100.00;100346.22;5107274;28;20243;-70
2023/12/11 06:54:42;;;;;;;1.20;1.20;;;;;;;5.23;100.00;100358.44;5114093;27;20213;-71
2023/12/11 06:57:09;;;;;;;0.70;0.70;;;;;;;5.35;100.00;100358.91;5114113;27;20201;-72
2023/12/11 06:59:36;;;;;;;1.37;1.37;;;;;;;5.47;100.00;100359.41;5091476;28;20309;-71
2023/12/11 07:02:05;;;;;;;1.23;1.23;;;;;;;5.48;100.00;100322.59;5090161;28;20205;-71
2023/12/11 07:04:32;;;;;;;1.10;1.10;;;;;;;5.51;100.00;100355.25;5091701;28;20240;-71
2023/12/11 07:06:58;;;;;;;3.60;1.33;;;;;;;5.49;100.00;100336.34;5102204;28;20212;-71
2023/12/11 07:09:29;;;;;;;3.97;1.67;;;;;;;5.70;100.00;100352.59;5099769;28;20326;-72
2023/12/11 07:11:56;;;;;;;1.37;1.37;;;;;;;5.57;100.00;100365.78;5109437;28;20376;-73
2023/12/11 07:14:24;;;;;;;1.00;1.00;;;;;;;5.27;100.00;100339.75;5115022;27;20202;-72
2023/12/11 07:16:51;;;;;;;6.50;2.70;;;;;;;5.34;100.00;100352.03;5100233;28;20696;-72
2023/12/11 07:19:19;;;;;;;1.10;1.10;;;;;;;5.47;100.00;100364.56;5110046;28;20197;-72
2023/12/11 07:21:46;;;;;;;1.47;1.47;;;;;;;5.46;100.00;100374.75;5110030;28;20274;-72
2023/12/11 07:24:13;;;;;;;1.80;1.40;;;;;;;5.56;100.00;100378.59;5110135;28;20221;-72
2023/12/11 07:26:40;;;;;;;6.40;2.40;;;;;;;5.59;100.00;100379.59;5075163;28;20212;-71
2023/12/11 07:29:07;;;;;;;2.37;2.27;;;;;;;5.23;100.00;100380.69;5110325;28;20204;-72
2023/12/11 07:31:34;;;;;;;1.53;1.43;;;;;;;5.47;100.00;100374.84;5057775;28;20282;-72
2023/12/11 07:34:01;;;;;;;1.27;1.27;;;;;;;5.61;100.00;100379.63;5110269;28;20304;-72
2023/12/11 07:36:29;;;;;;;1.50;1.50;;;;;;;5.76;100.00;100377.66;5110621;28;20272;-72
2023/12/11 07:38:56;;;;;;;2.17;1.43;;;;;;;5.65;100.00;100378.94;5110274;28;20203;-71
2023/12/11 07:41:24;;;;;;;1.83;1.60;;;;;;;5.75;100.00;100381.06;5106260;28;20207;-71
2023/12/11 07:43:51;;;;;;;1.63;1.30;;;;;;;5.90;100.00;100379.09;5110403;28;20235;-71
2023/12/11 07:46:18;;;;;;;1.70;1.60;;;;;;;6.01;100.00;100375.25;5109632;28;20691;-71
2023/12/11 07:48:44;;;;;;;1.40;1.40;;;;;;;6.12;100.00;100381.69;5107323;28;20222;-71
2023/12/11 07:51:18;;;;;;;2.20;1.83;;;;;;;6.19;100.00;100381.09;5107950;28;20228;-71
2023/12/11 07:53:46;;;;;;;0.70;0.70;;;;;;;6.19;100.00;100370.78;5109769;28;20213;-72
2023/12/11 07:56:19;;;;;;;1.63;1.63;;;;;;;6.22;100.00;100376.03;5098361;28;20204;-71
2023/12/11 07:58:46;;;;;;;0.80;0.80;;;;;;;6.23;100.00;100377.81;5093057;28;20620;-72
2023/12/11 08:01:13;;;;;;;1.30;1.30;;;;;;;6.22;100.00;100376.03;5058948;28;20202;-72
2023/12/11 08:03:40;;;;;;;1.10;1.10;;;;;;;5.94;100.00;100357.81;5097245;28;20697;-71
2023/12/11 08:06:08;;;;;;;1.00;1.00;;;;;;;6.01;100.00;100375.25;5092932;28;20198;-71
2023/12/11 08:08:40;;;;;;;6.17;2.33;;;;;;;5.77;100.00;100364.00;5108661;28;20206;-71
2023/12/11 08:11:16;;;;;;;1.70;1.60;;;;;;;6.05;100.00;100390.00;5094340;28;20677;-71
2023/12/11 08:13:43;;;;;;;5.93;1.40;;;;;;;6.02;100.00;100389.00;5109129;28;20265;-71
2023/12/11 08:16:11;;;;;;;2.03;2.03;;;;;;;5.76;100.00;100385.38;5067006;28;20206;-70
2023/12/11 08:18:37;;;;;;;1.53;1.43;;;;;;;5.80;100.00;100384.69;5103207;28;20205;-71
2023/12/11 08:21:05;;;;;;;1.63;1.63;;;;;;;5.48;100.00;100345.75;5102162;28;20204;-71
2023/12/11 08:23:32;;;;;;;3.80;2.00;;;;;;;5.71;100.00;100381.75;5096062;28;20245;-72
2023/12/11 08:25:59;;;;;;;3.87;2.40;;;;;;;5.53;100.00;100368.19;5108497;28;20198;-74
2023/12/11 08:28:27;;;;;;;1.57;1.57;;;;;;;5.63;100.00;100391.75;5112870;28;20202;-72
2023/12/11 08:30:54;;;;;;;0.80;0.80;;;;;;;5.70;100.00;100382.59;5096455;28;20244;-72
2023/12/11 08:33:21;;;;;;;1.27;1.27;;;;;;;5.59;100.00;100384.75;5096994;28;20194;-72
2023/12/11 08:35:48;;;;;;;1.73;1.63;;;;;;;5.72;100.00;100386.09;5090131;28;20202;-73
2023/12/11 08:38:16;;;;;;;0.87;0.87;;;;;;;5.74;100.00;100353.59;5089484;28;20194;-72
2023/12/11 08:40:44;;;;;;;1.73;1.73;;;;;;;5.99;100.00;100382.06;5090714;28;20198;-72
2023/12/11 08:43:12;;;;;;;1.67;1.67;;;;;;;5.97;100.00;100378.53;5117031;28;20193;-72
2023/12/11 08:45:41;;;;;;;1.20;1.20;;;;;;;6.09;100.00;100384.16;5089903;28;20234;-71
2023/12/11 08:48:07;;;;;;;2.30;2.20;;;;;;;6.01;100.00;100374.38;5089322;28;20213;-72
2023/12/11 08:50:35;;;;;;;1.50;1.27;;;;;;;6.09;100.00;100381.56;5056496;28;20206;-71
2023/12/11 08:53:03;;;;;;;1.60;1.60;;;;;;;6.17;100.00;100376.72;5093213;28;20202;-72
2023/12/11 08:55:30;;;;;;;1.83;1.73;;;;;;;5.97;100.00;100342.50;5094398;28;20213;-72
2023/12/11 08:57:57;;;;;;;1.37;1.37;;;;;;;6.31;100.00;100376.38;5092456;28;20695;-73
2023/12/11 09:00:24;;;;;;;0.90;0.90;;;;;;;5.96;100.00;100321.03;5096217;28;20589;-71
2023/12/11 09:02:52;;;;;;;3.30;2.47;;;;;;;6.25;100.00;100372.69;5092864;28;20205;-71
2023/12/11 09:05:19;;;;;;;6.23;2.13;;;;;;;5.95;100.00;100324.44;5101460;27;20229;-71
2023/12/11 09:07:46;;;;;;;1.03;1.03;;;;;;;6.04;100.00;100341.91;5110371;27;20201;-71
2023/12/11 09:10:13;;;;;;;1.07;1.07;;;;;;;6.17;100.00;100366.41;5115409;27;20190;-71
2023/12/11 09:12:41;;;;;;;0.90;0.90;;;;;;;6.08;100.00;100323.19;5110465;28;20194;-71
2023/12/11 09:15:09;;;;;;;1.57;1.57;;;;;;;6.35;100.00;100362.78;5109167;27;20284;-72
2023/12/11 09:17:36;;;;;;;1.00;1.00;;;;;;;6.48;100.00;100349.53;5097191;28;20204;-71
2023/12/11 09:20:06;;;;;;;1.00;1.00;;;;;;;6.78;100.00;100348.84;5102505;27;20197;-68
2023/12/11 09:22:32;;;;;;;1.60;1.37;;;;;;;7.01;100.00;100345.34;5097997;27;20216;-71
2023/12/11 09:24:59;;;;;;;1.60;1.50;;;;;;;6.80;100.00;100355.81;5095082;28;20264;-71
2023/12/11 09:27:26;;;;;;;0.90;0.90;;;;;;;6.74;100.00;100353.00;5096114;28;20208;-71
2023/12/11 09:29:52;;;;;;;1.77;1.67;;;;;;;6.77;100.00;100353.13;5097927;28;20225;-72
2023/12/11 09:32:19;;;;;;;0.80;0.80;;;;;;;6.67;100.00;100365.66;5056296;28;20191;-71
2023/12/11 09:34:47;;;;;;;2.70;2.50;;;;;;;6.53;100.00;100351.41;5108177;28;20270;-72
2023/12/11 09:37:18;;;;;;;1.20;1.20;;;;;;;6.55;100.00;100344.59;5119094;27;20960;-72
2023/12/11 09:39:45;;;;;;;1.20;1.20;;;;;;;6.54;100.00;100332.53;5096488;28;20222;-72
2023/12/11 09:42:15;;;;;;;1.30;1.30;;;;;;;6.20;100.00;100246.41;5111261;27;20252;-71
2023/12/11 09:44:45;;;;;;;2.70;2.50;;;;;;;6.72;100.00;100344.38;5126918;27;20236;-71
2023/12/11 09:47:16;;;;;;;1.40;1.37;;;;;;;7.01;100.00;100337.63;5111841;27;20205;-71
2023/12/11 09:49:45;;;;;;;5.93;1.67;;;;;;;7.15;100.00;100320.91;5112629;28;20197;-71
2023/12/11 09:52:13;;;;;;;3.53;1.93;;;;;;;7.28;100.00;100328.19;5112041;28;20201;-72
2023/12/11 09:54:41;;;;;;;1.20;1.20;;;;;;;7.53;100.00;100318.66;5111013;28;20300;-72
2023/12/11 09:57:11;;;;;;;0.80;0.80;;;;;;;7.63;100.00;100319.00;5112060;28;20212;-73
2023/12/11 09:59:38;;;;;;;1.07;1.07;;;;;;;7.71;100.00;100301.13;5112249;28;20201;-71
2023/12/11 10:02:09;;;;;;;1.40;1.40;;;;;;;7.89;100.00;100299.09;5111413;28;20197;-71
2023/12/11 10:04:36;;;;;;;3.10;1.93;;;;;;;8.17;100.00;100298.19;5111642;28;20229;-74
2023/12/11 10:07:03;;;;;;;2.10;2.00;;;;;;;8.30;100.00;100293.44;5112239;28;20198;-72
2023/12/11 10:09:33;;;;;;;1.43;1.43;;;;;;;8.43;100.00;100290.34;5059845;28;20585;-70
2023/12/11 10:12:02;;;;;;;0.97;0.97;;;;;;;8.48;100.00;100292.16;5111859;28;20216;-72
2023/12/11 10:14:30;;;;;;;1.77;1.73;;;;;;;8.58;100.00;100296.75;5111941;28;20696;-72
2023/12/11 10:16:57;;;;;;;1.37;1.37;;;;;;;8.77;100.00;100296.41;5110109;28;20692;-71
2023/12/11 10:19:34;;;;;;;2.60;2.40;;;;;;;8.95;100.00;100292.53;5111876;28;20665;-71
2023/12/11 10:22:01;;;;;;;0.90;0.90;;;;;;;9.08;100.00;100296.31;5111856;28;20269;-72
2023/12/11 10:24:30;;;;;;;1.33;1.23;;;;;;;8.43;100.00;100274.84;5111929;28;20236;-72
2023/12/11 10:26:58;;;;;;;1.93;1.37;;;;;;;8.49;100.00;100274.09;5112120;28;20196;-72
2023/12/11 10:29:30;;;;;;;1.63;1.47;;;;;;;8.65;100.00;100284.03;5110997;28;20209;-72
2023/12/11 10:32:02;;;;;;;4.13;2.87;;;;;;;8.72;100.00;100282.47;5111374;28;20198;-72
2023/12/11 10:34:42;;;;;;;1.03;0.97;;;;;;;8.82;100.00;100274.09;5112011;28;20197;-74
2023/12/11 10:37:13;;;;;;;1.40;1.40;;;;;;;9.06;100.00;100266.09;5111788;28;20193;-72
2023/12/11 10:39:51;;;;;;;2.20;1.30;;;;;;;9.27;100.00;100258.81;5109456;28;20210;-72
2023/12/11 10:42:18;;;;;;;1.23;1.23;;;;;;;9.36;100.00;100227.97;5110839;28;20197;-73
2023/12/11 10:44:46;;;;;;;1.00;1.00;;;;;;;9.92;100.00;100274.06;5111511;28;20233;-73
2023/12/11 10:47:14;;;;;;;1.50;1.47;;;;;;;9.92;100.00;100265.41;5111433;28;20207;-72
2023/12/11 10:49:40;;;;;;;1.27;1.27;;;;;;;9.13;100.00;100167.94;5103458;28;20206;-72
2023/12/11 10:52:08;;;;;;;2.00;1.77;;;;;;;9.61;100.00;100261.31;5110063;28;20649;-72
2023/12/11 10:54:37;;;;;;;1.83;1.83;;;;;;;9.94;100.00;100266.34;5093324;28;20209;-73
2023/12/11 10:57:09;;;;;;;1.20;1.20;;;;;;;10.15;99.61;100255.53;5097175;28;20201;-73
2023/12/11 10:59:37;;;;;;;10.10;2.43;;;;;;;10.00;99.20;100256.09;5096210;28;20209;-73
2023/12/11 11:02:07;;;;;;;3.50;1.00;;;;;;;9.54;98.60;100264.59;5100885;28;20209;-72
2023/12/11 11:04:39;;;;;;;6.70;1.10;;;;;;;8.98;100.00;100255.56;5102297;27;20276;-71
2023/12/11 11:07:13;;;;;;;0.70;0.70;;;;;;;9.16;100.00;100256.00;5133032;27;20787;-70
2023/12/11 11:09:52;;;;;;;0.80;0.80;;;;;;;9.07;100.00;100260.06;5103248;28;20201;-72
2023/12/11 11:12:30;;;;;;;1.50;1.50;;;;;;;9.03;100.00;100258.22;5112031;27;20197;-70
2023/12/11 11:14:57;;;;;;;1.20;1.20;;;;;;;8.72;100.00;100215.25;5090379;28;20206;-74
2023/12/11 11:17:26;;;;;;;1.33;1.27;;;;;;;8.55;100.00;100225.19;5107255;28;20205;-73
2023/12/11 11:20:10;;;;;;;0.80;0.80;;;;;;;8.91;100.00;100251.06;5111083;28;20236;-71
2023/12/11 11:22:37;;;;;;;0.70;0.70;;;;;;;8.98;100.00;100234.00;5110803;28;20205;-71
2023/12/11 11:25:33;;;;;;;1.67;1.57;;;;;;;8.97;100.00;100235.69;5110958;28;20374;-72
2023/12/11 11:28:00;;;;;;;0.77;0.77;;;;;;;8.39;100.00;100192.03;5111213;28;20201;-72